Time;durP1;ratioP1;P1;durP2;ratioP2;P2;SDS_P1;SDS_P2;PMS_P1;PMS_P2;Temp;Humidity;BMP_temperature;BMP_pressure;BME280_temperature;BME280_humidity;BME280_pressure;Samples;Min_cycle;Max_cycle;Signal;HPM_P1;HPM_P2
2023/04/08 00:00:17;;;;;;;0.70;0.70;;;;;;;21.87;25.97;101095.72;4535708;28;21227;-59
2023/04/08 00:02:28;;;;;;;0.77;0.77;;;;;;;21.93;25.83;101106.59;4533113;28;20039;-60
2023/04/08 00:04:38;;;;;;;1.13;1.02;;;;;;;21.87;25.93;101096.56;4533708;28;20065;-60
2023/04/08 00:06:48;;;;;;;0.80;0.80;;;;;;;21.92;25.99;101113.56;4529656;28;20041;-60
2023/04/08 00:08:59;;;;;;;0.90;0.90;;;;;;;21.89;25.85;101110.56;4533037;28;20045;-60
2023/04/08 00:11:09;;;;;;;1.17;0.98;;;;;;;21.91;26.07;101114.75;4534203;28;20123;-59
2023/04/08 00:13:20;;;;;;;1.02;1.00;;;;;;;21.90;26.18;101115.97;4533082;28;20057;-60
2023/04/08 00:15:30;;;;;;;0.85;0.85;;;;;;;21.89;26.10;101105.69;4534202;28;20423;-60
2023/04/08 00:17:41;;;;;;;0.90;0.90;;;;;;;21.84;26.50;101103.06;4521409;28;20560;-60
2023/04/08 00:19:51;;;;;;;0.82;0.82;;;;;;;21.90;26.23;101115.13;4530530;28;20041;-60
2023/04/08 00:22:02;;;;;;;0.75;0.75;;;;;;;21.90;26.09;101109.38;4532512;28;20393;-59
2023/04/08 00:24:12;;;;;;;0.93;0.93;;;;;;;21.88;26.03;101109.72;4533972;28;20531;-60
2023/04/08 00:26:23;;;;;;;0.75;0.75;;;;;;;21.86;25.95;101106.41;4534346;28;20092;-60
2023/04/08 00:28:34;;;;;;;0.80;0.80;;;;;;;21.85;25.80;101103.91;4534295;28;20041;-60
2023/04/08 00:30:44;;;;;;;0.80;0.80;;;;;;;21.88;26.04;101115.47;4533465;28;20045;-60
2023/04/08 00:32:55;;;;;;;0.82;0.80;;;;;;;21.88;25.98;101120.41;4521277;28;20033;-60
2023/04/08 00:35:06;;;;;;;0.90;0.80;;;;;;;21.84;25.39;101120.28;4531673;28;20041;-60
2023/04/08 00:37:17;;;;;;;0.75;0.75;;;;;;;21.83;25.63;101118.63;4532705;28;20033;-60
2023/04/08 00:39:28;;;;;;;0.80;0.80;;;;;;;21.72;25.96;101093.59;4535155;28;20029;-60
2023/04/08 00:41:38;;;;;;;1.10;0.82;;;;;;;21.87;25.89;101112.97;4532418;28;20033;-60
2023/04/08 00:43:49;;;;;;;1.10;1.00;;;;;;;21.85;25.95;101107.59;4532918;28;20249;-60
2023/04/08 00:46:00;;;;;;;1.27;1.17;;;;;;;21.85;26.34;101119.09;4533920;28;20118;-60
2023/04/08 00:48:10;;;;;;;1.30;1.20;;;;;;;21.84;26.11;101107.94;4531706;28;20056;-60
2023/04/08 00:50:20;;;;;;;0.90;0.90;;;;;;;21.86;26.35;101120.78;4531527;28;20183;-60
2023/04/08 00:52:31;;;;;;;1.08;1.00;;;;;;;21.78;26.30;101110.25;4531375;28;20494;-60
2023/04/08 00:54:41;;;;;;;1.40;1.30;;;;;;;21.84;26.58;101128.91;4529772;28;20029;-60
2023/04/08 00:56:52;;;;;;;1.60;1.50;;;;;;;21.85;26.30;101121.16;4498258;28;20503;-60
2023/04/08 00:59:03;;;;;;;1.25;1.15;;;;;;;21.82;26.13;101116.94;4516034;28;20038;-60
2023/04/08 01:01:24;;;;;;;1.30;1.20;;;;;;;21.82;26.25;101124.72;4514680;28;20041;-61
2023/04/08 01:03:59;;;;;;;1.67;1.20;;;;;;;21.79;25.92;101123.41;4532976;28;20879;-60
2023/04/08 01:06:21;;;;;;;0.80;0.80;;;;;;;21.77;26.68;101120.06;4532846;28;20041;-60
2023/04/08 01:08:34;;;;;;;0.80;0.80;;;;;;;21.81;26.40;101126.78;4531452;28;20104;-60
2023/04/08 01:10:50;;;;;;;0.90;0.90;;;;;;;21.78;26.15;101127.50;4528426;28;20021;-60
2023/04/08 01:13:07;;;;;;;0.82;0.82;;;;;;;21.81;26.16;101120.19;4531251;28;20641;-60
2023/04/08 01:15:18;;;;;;;0.80;0.80;;;;;;;21.78;25.65;101118.03;4521986;28;20040;-60
2023/04/08 01:17:29;;;;;;;1.05;1.00;;;;;;;21.81;25.36;101126.78;4514698;28;20029;-60
2023/04/08 01:19:43;;;;;;;0.80;0.80;;;;;;;21.78;25.05;101130.38;4530864;28;21085;-62
2023/04/08 01:22:02;;;;;;;0.70;0.70;;;;;;;21.74;25.20;101115.00;4517662;28;20032;-60
2023/04/08 01:24:27;;;;;;;0.70;0.70;;;;;;;21.73;25.55;101121.13;4516481;28;20033;-60
2023/04/08 01:26:40;;;;;;;0.80;0.80;;;;;;;21.80;25.33;101122.22;4515472;28;20486;-61
2023/04/08 01:28:54;;;;;;;0.80;0.80;;;;;;;21.80;25.51;101127.13;4531535;28;20052;-60
2023/04/08 01:31:06;;;;;;;0.90;0.90;;;;;;;21.75;25.16;101124.47;4530365;28;20373;-60
2023/04/08 01:33:18;;;;;;;0.88;0.88;;;;;;;21.78;25.69;101139.00;4527270;28;20654;-60
2023/04/08 01:35:31;;;;;;;0.80;0.80;;;;;;;21.78;25.58;101144.75;4529685;28;20576;-60
2023/04/08 01:37:42;;;;;;;1.00;1.00;;;;;;;21.76;25.68;101144.25;4532818;28;20483;-60
2023/04/08 01:39:54;;;;;;;0.80;0.80;;;;;;;21.78;25.57;101141.03;4515335;28;21313;-60
2023/04/08 01:42:04;;;;;;;0.90;0.90;;;;;;;21.76;25.75;101135.63;4512787;28;20052;-60
2023/04/08 01:44:17;;;;;;;0.80;0.80;;;;;;;21.74;25.75;101132.25;4521809;28;20287;-60
2023/04/08 01:46:29;;;;;;;0.98;0.98;;;;;;;21.74;25.75;101132.25;4520080;28;20585;-60
2023/04/08 01:48:40;;;;;;;1.00;0.90;;;;;;;21.72;26.00;101125.19;4530924;28;20043;-60
2023/04/08 01:50:51;;;;;;;1.00;1.00;;;;;;;21.72;25.54;101123.16;4531143;28;20037;-60
2023/04/08 01:53:03;;;;;;;0.85;0.85;;;;;;;21.74;25.77;101135.13;4531200;28;20196;-62
2023/04/08 01:55:15;;;;;;;0.90;0.80;;;;;;;21.61;25.68;101115.41;4530804;28;20115;-62
2023/04/08 01:57:29;;;;;;;0.90;0.90;;;;;;;21.74;25.92;101143.75;4515697;28;20041;-61
2023/04/08 01:59:41;;;;;;;0.90;0.90;;;;;;;21.75;25.44;101141.72;4514588;28;20072;-61
2023/04/08 02:01:52;;;;;;;0.93;0.93;;;;;;;21.70;26.11;101130.47;4515775;28;20033;-62
2023/04/08 02:04:03;;;;;;;0.90;0.90;;;;;;;21.74;25.76;101140.88;4530458;28;20100;-61
2023/04/08 02:06:13;;;;;;;0.88;0.80;;;;;;;21.73;25.62;101144.09;4530328;28;20584;-61
2023/04/08 02:08:24;;;;;;;0.80;0.80;;;;;;;21.70;25.96;101134.19;4531484;28;20459;-61
2023/04/08 02:10:34;;;;;;;0.93;0.93;;;;;;;21.70;25.77;101141.97;4534569;28;20033;-60
2023/04/08 02:12:45;;;;;;;0.82;0.82;;;;;;;21.70;25.96;101148.56;4504010;28;20084;-61
2023/04/08 02:14:56;;;;;;;0.70;0.70;;;;;;;21.71;25.77;101144.47;4533303;28;20648;-60
2023/04/08 02:17:20;;;;;;;0.90;0.90;;;;;;;21.68;25.99;101136.56;4533191;28;20116;-60
2023/04/08 02:20:04;;;;;;;0.80;0.80;;;;;;;21.71;26.60;101140.75;4514205;28;20079;-60
2023/04/08 02:22:57;;;;;;;1.08;1.00;;;;;;;21.69;26.26;101135.38;4502655;28;20781;-59
2023/04/08 02:25:12;;;;;;;0.90;0.90;;;;;;;21.70;26.22;101139.09;4535938;28;20028;-60
2023/04/08 02:27:25;;;;;;;0.95;0.95;;;;;;;21.70;26.82;101139.09;4536205;28;20121;-61
2023/04/08 02:29:39;;;;;;;0.90;0.90;;;;;;;21.68;26.38;101139.44;4535320;28;20084;-60
2023/04/08 02:31:51;;;;;;;0.90;0.90;;;;;;;21.68;26.69;101141.47;4533053;28;20112;-60
2023/04/08 02:34:04;;;;;;;0.98;0.98;;;;;;;21.68;26.67;101150.94;4532759;28;20568;-60
2023/04/08 02:36:15;;;;;;;0.90;0.90;;;;;;;21.67;26.76;101143.53;4535423;28;20043;-60
2023/04/08 02:38:29;;;;;;;0.82;0.82;;;;;;;21.67;26.64;101142.69;4518691;28;20063;-60
2023/04/08 02:40:40;;;;;;;0.80;0.80;;;;;;;21.66;26.96;101141.84;4518768;28;20041;-60
2023/04/08 02:42:51;;;;;;;0.90;0.90;;;;;;;21.65;27.12;101151.66;4538105;28;20040;-60
2023/04/08 02:45:01;;;;;;;1.10;1.00;;;;;;;21.67;26.78;101148.44;4534716;28;20052;-61
2023/04/08 02:47:12;;;;;;;0.98;0.90;;;;;;;21.65;26.87;101151.66;4532705;28;20844;-61
2023/04/08 02:49:22;;;;;;;0.93;0.93;;;;;;;21.65;27.12;101148.78;4535717;28;20049;-60
2023/04/08 02:51:33;;;;;;;1.00;1.00;;;;;;;21.66;27.40;101153.34;4532588;28;20104;-59
2023/04/08 02:53:43;;;;;;;1.10;1.00;;;;;;;21.65;27.50;101151.66;4534022;28;20045;-60
2023/04/08 02:55:54;;;;;;;1.00;1.00;;;;;;;21.63;27.20;101151.19;4519777;28;20553;-60
2023/04/08 02:58:04;;;;;;;1.17;1.00;;;;;;;21.66;27.57;101164.81;4536339;28;20133;-60
2023/04/08 03:00:16;;;;;;;0.90;0.90;;;;;;;21.64;27.39;101155.75;4534464;28;20509;-60
2023/04/08 03:02:26;;;;;;;1.00;1.00;;;;;;;21.61;27.76;101159.31;4534661;28;20040;-60
2023/04/08 03:04:36;;;;;;;0.90;0.90;;;;;;;21.61;27.36;101162.19;4519239;28;20037;-60
2023/04/08 03:06:47;;;;;;;1.00;1.00;;;;;;;21.63;27.50;101156.09;4534626;28;20053;-60
2023/04/08 03:08:57;;;;;;;1.20;1.10;;;;;;;21.57;27.60;101146.88;4533071;28;20037;-60
2023/04/08 03:11:08;;;;;;;1.45;1.35;;;;;;;21.63;27.58;101165.53;4531815;28;20022;-60
2023/04/08 03:13:18;;;;;;;1.50;1.40;;;;;;;21.62;27.66;101163.03;4535825;28;20041;-60
2023/04/08 03:15:29;;;;;;;1.00;1.00;;;;;;;21.60;27.89;101163.41;4534228;28;20033;-60
2023/04/08 03:17:40;;;;;;;1.00;1.00;;;;;;;21.61;27.68;101162.19;4536669;28;20367;-60
2023/04/08 03:19:50;;;;;;;1.20;1.08;;;;;;;21.58;28.02;101153.47;4535881;28;20437;-60
2023/04/08 03:22:01;;;;;;;2.35;2.15;;;;;;;21.61;27.65;101156.44;4534976;28;20090;-60
2023/04/08 03:24:11;;;;;;;1.55;1.45;;;;;;;21.60;27.96;101148.19;4535344;28;20069;-59
2023/04/08 03:26:21;;;;;;;1.08;1.00;;;;;;;21.62;27.90;101152.41;4534519;28;20191;-60
2023/04/08 03:28:32;;;;;;;1.00;1.00;;;;;;;21.62;27.70;101158.13;4536207;28;20084;-60
2023/04/08 03:30:42;;;;;;;1.30;1.20;;;;;;;21.61;28.12;101167.94;4534004;28;20824;-60
2023/04/08 03:32:52;;;;;;;1.23;1.13;;;;;;;21.60;27.86;101169.16;4535044;28;20051;-60
2023/04/08 03:35:05;;;;;;;1.25;1.15;;;;;;;21.60;28.09;101172.03;4533309;28;20028;-60
2023/04/08 03:37:16;;;;;;;1.40;1.30;;;;;;;21.57;28.31;101161.25;4532289;28;20575;-60
2023/04/08 03:39:27;;;;;;;1.23;1.13;;;;;;;21.56;28.28;101171.06;4535654;28;20025;-60
2023/04/08 03:41:37;;;;;;;1.20;1.10;;;;;;;21.57;27.87;101169.88;4535687;28;20033;-60
2023/04/08 03:43:47;;;;;;;1.20;1.10;;;;;;;21.59;27.86;101176.09;4533669;28;20191;-60
2023/04/08 03:45:58;;;;;;;1.00;1.00;;;;;;;21.55;27.94;101169.38;4534778;28;20115;-60
2023/04/08 03:48:08;;;;;;;1.20;1.10;;;;;;;21.56;27.76;101170.22;4535122;28;20589;-60
2023/04/08 03:50:19;;;;;;;1.00;1.00;;;;;;;21.57;28.22;101172.75;4533579;28;20587;-60
2023/04/08 03:52:29;;;;;;;1.25;1.10;;;;;;;21.55;28.25;101168.56;4534483;28;20116;-60
2023/04/08 03:54:40;;;;;;;1.08;1.00;;;;;;;21.56;28.22;101173.94;4535820;28;20045;-61
2023/04/08 03:56:50;;;;;;;1.08;1.08;;;;;;;21.56;28.14;101176.81;4536034;28;20059;-60
2023/04/08 03:59:00;;;;;;;1.20;1.10;;;;;;;21.55;28.19;101169.38;4534188;28;20037;-60
2023/04/08 04:01:11;;;;;;;1.05;0.95;;;;;;;21.56;28.34;101175.97;4531580;28;20079;-60
2023/04/08 04:03:21;;;;;;;1.30;1.20;;;;;;;21.57;28.39;101178.50;4533998;28;20069;-60
2023/04/08 04:05:31;;;;;;;1.23;1.13;;;;;;;21.54;28.60;101179.22;4534436;28;20108;-60
2023/04/08 04:07:42;;;;;;;1.00;1.00;;;;;;;21.54;28.50;101179.22;4536162;28;20041;-59
2023/04/08 04:09:55;;;;;;;1.20;1.10;;;;;;;21.55;28.73;101180.88;4533903;28;20040;-59
2023/04/08 04:12:05;;;;;;;1.40;1.30;;;;;;;21.53;28.64;101180.38;4532347;28;21089;-59
2023/04/08 04:14:15;;;;;;;1.17;1.08;;;;;;;21.50;28.47;101183.97;4516281;28;20037;-59
2023/04/08 04:16:26;;;;;;;1.02;1.02;;;;;;;21.51;28.74;101181.97;4532776;28;20033;-60
2023/04/08 04:18:36;;;;;;;1.13;1.02;;;;;;;21.54;28.45;101196.44;4532628;28;20622;-60
2023/04/08 04:20:47;;;;;;;1.20;1.10;;;;;;;21.55;28.47;101191.56;4532411;28;20063;-60
2023/04/08 04:22:57;;;;;;;1.20;1.10;;;;;;;21.52;28.97;101184.47;4533509;28;20043;-60
2023/04/08 04:25:08;;;;;;;1.10;1.10;;;;;;;21.55;28.92;101186.63;4533788;28;20068;-60
2023/04/08 04:27:18;;;;;;;1.48;1.05;;;;;;;21.52;28.67;101186.50;4532065;28;20572;-60
2023/04/08 04:29:30;;;;;;;1.20;1.10;;;;;;;21.52;28.56;101184.47;4533293;28;20126;-60
2023/04/08 04:31:41;;;;;;;0.93;0.93;;;;;;;21.51;28.77;101179.94;4534352;28;20025;-60
2023/04/08 04:33:51;;;;;;;1.30;1.20;;;;;;;21.47;28.84;101173.22;4533885;28;20041;-60
2023/04/08 04:36:02;;;;;;;1.10;1.00;;;;;;;21.50;28.94;101186.84;4534049;28;20467;-60
2023/04/08 04:38:12;;;;;;;1.58;1.10;;;;;;;21.50;29.00;101189.72;4533030;28;20024;-60
2023/04/08 04:40:23;;;;;;;1.20;1.10;;;;;;;21.53;28.63;101194.75;4530526;28;20037;-59
2023/04/08 04:42:33;;;;;;;1.23;1.05;;;;;;;21.52;28.46;101193.09;4531119;28;20038;-60
2023/04/08 04:44:44;;;;;;;1.15;1.05;;;;;;;21.52;28.64;101195.97;4532025;28;20036;-60
2023/04/08 04:46:54;;;;;;;1.00;1.00;;;;;;;21.50;28.50;101195.47;4532141;28;20037;-59
2023/04/08 04:49:05;;;;;;;1.23;1.10;;;;;;;21.52;28.93;101197.97;4532772;28;20045;-60
2023/04/08 04:51:15;;;;;;;1.27;1.17;;;;;;;21.50;28.63;101194.66;4532161;28;20039;-59
2023/04/08 04:53:25;;;;;;;1.27;1.17;;;;;;;21.52;28.97;101203.72;4533479;28;20033;-60
2023/04/08 04:55:36;;;;;;;1.52;1.17;;;;;;;21.48;29.02;101192.16;4531769;28;20071;-60
2023/04/08 04:57:47;;;;;;;1.13;1.10;;;;;;;21.49;28.73;101182.31;4533477;28;20042;-60
2023/04/08 04:59:57;;;;;;;1.45;1.35;;;;;;;21.50;29.04;101183.16;4531659;28;20406;-60
2023/04/08 05:02:08;;;;;;;2.83;2.58;;;;;;;21.49;28.76;101188.06;4519037;28;20057;-60
2023/04/08 05:04:18;;;;;;;2.30;2.10;;;;;;;21.49;28.72;101198.69;4535193;28;20037;-60
2023/04/08 05:06:28;;;;;;;2.15;1.60;;;;;;;21.39;28.96;101181.97;4532651;28;20147;-60
2023/04/08 05:08:39;;;;;;;2.20;2.00;;;;;;;21.43;29.10;101189.50;4513522;28;20052;-60
2023/04/08 05:10:49;;;;;;;2.10;1.90;;;;;;;21.48;29.20;101209.38;4533557;28;20067;-59
2023/04/08 05:13:00;;;;;;;1.90;1.80;;;;;;;21.48;29.31;101218.00;4532491;28;20111;-59
2023/04/08 05:15:10;;;;;;;2.17;1.92;;;;;;;21.48;29.13;101220.03;4532072;28;20553;-59
2023/04/08 05:17:20;;;;;;;1.70;1.60;;;;;;;21.47;29.32;101213.44;4533181;28;20040;-60
2023/04/08 05:19:31;;;;;;;1.73;1.48;;;;;;;21.43;29.12;101212.47;4515412;28;20853;-60
2023/04/08 05:21:41;;;;;;;1.40;1.30;;;;;;;21.47;29.17;101218.34;4530679;28;20065;-59
2023/04/08 05:23:53;;;;;;;1.50;1.40;;;;;;;21.47;29.45;101221.22;4530290;28;20076;-59
2023/04/08 05:26:07;;;;;;;1.40;1.30;;;;;;;21.45;29.32;101221.59;4532873;28;20028;-60
2023/04/08 05:28:18;;;;;;;1.48;1.38;;;;;;;21.43;29.21;101218.22;4531290;28;20553;-59
2023/04/08 05:30:28;;;;;;;1.55;1.45;;;;;;;21.45;29.36;101227.34;4530838;28;20426;-59
2023/04/08 05:32:38;;;;;;;1.60;1.50;;;;;;;21.39;29.31;101223.00;4533624;28;20030;-60
2023/04/08 05:34:49;;;;;;;1.30;1.20;;;;;;;21.46;29.82;101229.00;4533594;28;20036;-59
2023/04/08 05:37:00;;;;;;;1.42;1.33;;;;;;;21.44;29.56;101231.38;4531147;28;20671;-58
2023/04/08 05:39:10;;;;;;;1.50;1.40;;;;;;;21.45;29.74;101232.22;4532863;28;20059;-59
2023/04/08 05:41:21;;;;;;;1.83;1.50;;;;;;;21.45;30.36;101237.97;4517858;28;20033;-60
2023/04/08 05:43:34;;;;;;;1.60;1.45;;;;;;;21.44;29.88;101245.75;4531392;28;20475;-60
2023/04/08 05:45:45;;;;;;;1.88;1.70;;;;;;;21.41;29.60;101226.34;4531082;28;20139;-60
2023/04/08 05:47:55;;;;;;;1.83;1.73;;;;;;;21.43;30.23;101226.84;4516283;28;20046;-59
2023/04/08 05:50:07;;;;;;;2.10;1.90;;;;;;;21.38;30.14;101220.47;4532354;28;20711;-60
2023/04/08 05:52:17;;;;;;;3.00;2.70;;;;;;;21.44;30.20;101242.88;4530355;28;20044;-60
2023/04/08 05:54:28;;;;;;;4.05;3.65;;;;;;;21.44;29.87;101254.34;4531140;28;20023;-60
2023/04/08 05:56:38;;;;;;;3.80;3.40;;;;;;;21.43;30.06;101258.44;4534050;28;20060;-61
2023/04/08 05:58:49;;;;;;;2.53;2.33;;;;;;;21.43;30.02;101257.59;4530935;28;20579;-60
2023/04/08 06:00:59;;;;;;;1.63;1.52;;;;;;;21.43;30.27;101258.44;4521219;28;20033;-59
2023/04/08 06:03:10;;;;;;;1.60;1.50;;;;;;;21.41;30.05;101246.47;4514461;28;20478;-60
2023/04/08 06:05:20;;;;;;;1.50;1.40;;;;;;;21.40;30.54;101252.56;4530561;28;20052;-60
2023/04/08 06:07:31;;;;;;;1.60;1.50;;;;;;;21.42;30.22;101261.66;4531799;28;20119;-60
2023/04/08 06:09:42;;;;;;;1.90;1.80;;;;;;;21.42;30.55;101268.22;4516972;28;20040;-59
2023/04/08 06:11:52;;;;;;;1.92;1.73;;;;;;;21.41;30.29;101272.31;4532024;28;20041;-60
2023/04/08 06:14:03;;;;;;;1.75;1.65;;;;;;;21.34;30.04;101259.75;4532649;28;20037;-59
2023/04/08 06:16:16;;;;;;;1.90;1.70;;;;;;;21.40;30.42;101270.63;4534144;28;20073;-60
2023/04/08 06:18:26;;;;;;;1.75;1.63;;;;;;;21.34;30.29;101260.59;4531572;28;20615;-60
2023/04/08 06:20:36;;;;;;;1.77;1.67;;;;;;;21.36;30.39;101272.53;4530644;28;20068;-60
2023/04/08 06:22:47;;;;;;;1.60;1.50;;;;;;;21.34;30.11;101271.22;4530081;28;20127;-61
2023/04/08 06:24:57;;;;;;;1.83;1.73;;;;;;;21.36;30.02;101278.28;4529261;28;20076;-59
2023/04/08 06:27:08;;;;;;;1.80;1.70;;;;;;;21.36;30.17;101281.16;4529268;28;20184;-60
2023/04/08 06:29:22;;;;;;;1.65;1.55;;;;;;;21.38;30.08;101278.75;4514968;28;20076;-60
2023/04/08 06:31:32;;;;;;;1.70;1.60;;;;;;;21.35;30.26;101276.59;4530102;28;20130;-59
2023/04/08 06:33:43;;;;;;;1.77;1.67;;;;;;;21.34;30.48;101283.56;4530823;28;20548;-60
2023/04/08 06:36:07;;;;;;;1.70;1.60;;;;;;;21.36;30.36;101284.00;4531322;28;20068;-60
2023/04/08 06:38:17;;;;;;;2.05;1.77;;;;;;;21.36;30.05;101284.00;4531172;28;20036;-60
2023/04/08 06:40:27;;;;;;;1.85;1.75;;;;;;;21.35;30.57;101290.97;4532271;28;20072;-59
2023/04/08 06:42:39;;;;;;;2.67;1.75;;;;;;;21.38;30.40;101301.75;4531854;28;20048;-59
2023/04/08 06:45:03;;;;;;;1.60;1.50;;;;;;;21.36;30.37;101286.88;4514458;28;20029;-60
2023/04/08 06:47:15;;;;;;;1.83;1.73;;;;;;;21.37;30.56;101300.06;4528778;28;20650;-60
2023/04/08 06:49:26;;;;;;;1.65;1.55;;;;;;;21.36;30.84;101309.84;4530716;28;20132;-59
2023/04/08 06:51:36;;;;;;;1.80;1.70;;;;;;;21.35;30.60;101313.09;4530002;28;20032;-59
2023/04/08 06:53:47;;;;;;;1.67;1.58;;;;;;;21.38;30.47;101318.13;4531720;28;20033;-61
2023/04/08 06:55:57;;;;;;;1.70;1.60;;;;;;;21.36;30.54;101318.47;4530105;28;20029;-60
2023/04/08 06:58:08;;;;;;;1.80;1.70;;;;;;;21.32;30.42;101308.06;4511938;28;20635;-61
2023/04/08 07:00:18;;;;;;;1.90;1.80;;;;;;;21.36;30.79;101304.13;4531341;28;20103;-60
2023/04/08 07:02:29;;;;;;;1.65;1.55;;;;;;;21.39;31.08;101316.94;4527112;28;20727;-60
2023/04/08 07:04:39;;;;;;;1.98;1.80;;;;;;;21.40;30.61;101324.34;4529833;28;20040;-60
2023/04/08 07:06:50;;;;;;;1.80;1.70;;;;;;;21.37;30.76;101323.03;4513684;28;20042;-60
2023/04/08 07:09:01;;;;;;;1.77;1.67;;;;;;;21.36;31.13;101327.09;4500401;28;20824;-59
2023/04/08 07:11:11;;;;;;;1.90;1.80;;;;;;;21.38;30.68;101327.59;4533048;28;20037;-59
2023/04/08 07:13:22;;;;;;;1.90;1.80;;;;;;;21.39;30.53;101325.56;4534202;28;20150;-59
2023/04/08 07:15:32;;;;;;;1.90;1.80;;;;;;;21.40;30.32;101328.06;4531549;28;20175;-59
2023/04/08 07:17:43;;;;;;;2.00;1.90;;;;;;;21.37;30.69;101323.03;4535474;28;20033;-59
2023/04/08 07:19:54;;;;;;;3.03;1.98;;;;;;;21.40;30.27;101333.81;4531173;28;20206;-60
2023/04/08 07:22:05;;;;;;;2.13;1.92;;;;;;;21.35;30.68;101313.94;4533752;28;20092;-60
2023/04/08 07:24:15;;;;;;;2.00;1.80;;;;;;;21.42;30.21;101336.34;4535331;28;20088;-59
2023/04/08 07:26:27;;;;;;;2.13;1.92;;;;;;;21.43;30.38;101343.75;4533880;28;20155;-60
2023/04/08 07:28:37;;;;;;;1.70;1.60;;;;;;;21.41;30.14;101341.22;4517020;28;20112;-60
2023/04/08 07:30:48;;;;;;;1.90;1.80;;;;;;;21.35;30.29;101341.81;4534896;28;20321;-61
2023/04/08 07:32:58;;;;;;;1.90;1.80;;;;;;;21.42;30.59;101348.63;4534350;28;20021;-59
2023/04/08 07:35:09;;;;;;;2.05;1.85;;;;;;;21.44;30.38;101352.00;4533003;28;20037;-60
2023/04/08 07:37:19;;;;;;;1.80;1.70;;;;;;;21.39;30.93;101349.34;4535030;28;20099;-60
2023/04/08 07:39:30;;;;;;;2.70;2.00;;;;;;;21.42;31.06;101360.13;4501912;28;20030;-60
2023/04/08 07:41:40;;;;;;;1.80;1.70;;;;;;;21.40;31.02;101359.66;4532627;28;20036;-60
2023/04/08 07:43:50;;;;;;;1.88;1.77;;;;;;;21.40;31.00;101359.66;4535651;28;20032;-60
2023/04/08 07:46:02;;;;;;;1.92;1.73;;;;;;;21.41;30.97;101346.97;4534862;28;20048;-59
2023/04/08 07:48:12;;;;;;;2.97;1.92;;;;;;;21.41;31.02;101349.84;4535276;28;20136;-60
2023/04/08 07:50:22;;;;;;;1.90;1.80;;;;;;;21.41;30.82;101352.72;4534201;28;20025;-60
2023/04/08 07:52:33;;;;;;;1.98;1.77;;;;;;;21.38;31.09;101359.19;4533700;28;20095;-59
2023/04/08 07:54:44;;;;;;;2.28;2.08;;;;;;;21.41;31.23;101363.34;4532356;28;20030;-59
2023/04/08 07:56:54;;;;;;;1.95;1.85;;;;;;;21.42;30.77;101363.00;4530655;28;20137;-60
2023/04/08 07:59:05;;;;;;;2.08;1.88;;;;;;;21.44;31.18;101363.50;4536696;28;20572;-60
2023/04/08 08:01:20;;;;;;;2.05;1.85;;;;;;;21.41;30.94;101367.06;4529854;28;21132;-60
2023/04/08 08:03:31;;;;;;;1.92;1.83;;;;;;;21.39;30.93;101360.84;4533429;28;20033;-60
2023/04/08 08:05:41;;;;;;;2.47;2.05;;;;;;;21.43;31.38;101373.31;4530602;28;20182;-60
2023/04/08 08:07:52;;;;;;;2.45;2.20;;;;;;;21.43;30.91;101373.31;4531430;28;20048;-59
2023/04/08 08:10:02;;;;;;;2.10;1.90;;;;;;;21.42;31.19;101373.66;4533234;28;20792;-60
2023/04/08 08:12:13;;;;;;;2.20;2.00;;;;;;;21.45;31.17;101372.97;4533036;28;20044;-60
2023/04/08 08:14:25;;;;;;;2.50;2.30;;;;;;;21.42;31.24;101368.75;4531840;28;20556;-60
2023/04/08 08:16:37;;;;;;;1.85;1.75;;;;;;;21.42;31.60;101371.63;4532753;28;20031;-60
2023/04/08 08:18:48;;;;;;;2.45;2.13;;;;;;;21.44;31.33;101377.84;4531627;28;20446;-60
2023/04/08 08:21:00;;;;;;;1.92;1.77;;;;;;;21.43;31.11;101364.69;4533998;28;20119;-60
2023/04/08 08:23:11;;;;;;;2.25;1.77;;;;;;;21.45;31.29;101373.81;4532943;28;20049;-60
2023/04/08 08:25:21;;;;;;;2.05;1.85;;;;;;;21.31;31.14;101352.34;4532833;28;20037;-60
2023/04/08 08:27:33;;;;;;;2.03;1.83;;;;;;;21.43;31.28;101370.44;4535005;28;20565;-60
2023/04/08 08:29:43;;;;;;;2.22;2.00;;;;;;;21.42;31.54;101377.34;4533657;28;20045;-60
2023/04/08 08:31:54;;;;;;;1.90;1.80;;;;;;;21.43;31.26;101381.09;4534893;28;20021;-60
2023/04/08 08:34:04;;;;;;;1.70;1.60;;;;;;;21.44;31.47;101372.09;4532356;28;20118;-60
2023/04/08 08:36:15;;;;;;;2.65;2.10;;;;;;;21.43;31.65;101381.94;4532527;28;20171;-60
2023/04/08 08:38:25;;;;;;;2.20;2.00;;;;;;;21.47;31.64;101391.50;4531206;28;20044;-60
2023/04/08 08:40:36;;;;;;;2.33;2.10;;;;;;;21.47;31.42;101391.50;4531622;28;20033;-59
2023/04/08 08:42:51;;;;;;;2.28;2.08;;;;;;;21.49;31.21;101388.28;4530672;28;20039;-60
2023/04/08 08:45:02;;;;;;;3.13;2.30;;;;;;;21.48;31.16;101390.31;4533820;28;20597;-58
2023/04/08 08:47:13;;;;;;;2.30;2.10;;;;;;;21.47;30.83;101385.75;4532193;28;20025;-60
2023/04/08 08:49:24;;;;;;;2.33;2.13;;;;;;;21.48;31.34;101392.34;4531095;28;20034;-60
2023/04/08 08:51:35;;;;;;;2.38;2.15;;;;;;;21.49;31.67;101388.28;4533428;28;20032;-60
2023/04/08 08:53:45;;;;;;;2.28;2.08;;;;;;;21.49;31.25;101397.75;4532992;28;20041;-61
2023/04/08 08:55:56;;;;;;;2.45;2.25;;;;;;;21.48;31.87;101398.09;4532667;28;20884;-60
2023/04/08 08:58:07;;;;;;;2.10;2.00;;;;;;;21.49;31.96;101399.75;4532528;28;20727;-60
2023/04/08 09:00:17;;;;;;;2.33;2.13;;;;;;;21.49;31.49;101397.75;4533910;28;20032;-61
2023/04/08 09:02:30;;;;;;;2.42;2.22;;;;;;;21.47;31.79;101397.25;4535206;28;20029;-60
2023/04/08 09:04:55;;;;;;;2.50;2.30;;;;;;;21.47;31.80;101407.91;4533030;28;20037;-60
2023/04/08 09:07:12;;;;;;;2.50;2.30;;;;;;;21.49;31.35;101405.50;4530955;28;20022;-61
2023/04/08 09:09:24;;;;;;;2.42;2.22;;;;;;;21.49;31.59;101397.75;4531677;28;20048;-61
2023/04/08 09:11:43;;;;;;;2.30;2.10;;;;;;;21.49;31.05;101405.50;4532908;28;20078;-65
2023/04/08 09:13:55;;;;;;;2.40;2.20;;;;;;;21.47;31.11;101405.03;4523717;28;20068;-61
2023/04/08 09:16:11;;;;;;;2.58;2.38;;;;;;;21.44;30.95;101397.97;4529535;28;20029;-60
2023/04/08 09:18:22;;;;;;;2.92;2.22;;;;;;;21.49;31.19;101406.34;4533647;28;20109;-59
2023/04/08 09:20:32;;;;;;;2.67;2.47;;;;;;;21.49;31.17;101405.50;4532138;28;20607;-59
2023/04/08 09:23:00;;;;;;;4.00;2.58;;;;;;;21.50;31.27;101415.81;4505152;28;20036;-60
2023/04/08 09:25:25;;;;;;;2.40;2.20;;;;;;;21.48;31.89;101409.59;4532503;28;20033;-60
2023/04/08 09:27:35;;;;;;;2.67;2.47;;;;;;;21.49;31.89;101408.38;4513795;28;20136;-60
2023/04/08 09:29:46;;;;;;;2.80;2.60;;;;;;;21.48;31.40;101415.31;4534844;28;20095;-60
2023/04/08 09:31:57;;;;;;;2.70;2.50;;;;;;;21.45;31.83;101410.28;4534888;28;20060;-61
2023/04/08 09:34:14;;;;;;;3.13;2.85;;;;;;;21.48;31.54;101416.19;4532006;28;20130;-60
2023/04/08 09:36:28;;;;;;;2.80;2.60;;;;;;;21.47;31.48;101417.34;4532515;28;20083;-60
2023/04/08 09:38:38;;;;;;;2.58;2.38;;;;;;;21.47;31.64;101414.47;4530715;28;20236;-60
2023/04/08 09:40:50;;;;;;;3.00;2.80;;;;;;;21.45;31.93;101411.16;4527414;28;20059;-60
2023/04/08 09:43:04;;;;;;;3.75;3.35;;;;;;;21.48;31.62;101415.31;4532279;28;20856;-60
2023/04/08 09:45:16;;;;;;;2.78;2.58;;;;;;;21.49;31.55;101417.84;4529811;28;20547;-60
2023/04/08 09:47:28;;;;;;;2.85;2.55;;;;;;;21.50;31.69;101422.38;4532094;28;20595;-60
2023/04/08 09:49:57;;;;;;;2.88;2.67;;;;;;;21.48;32.09;101421.94;4531882;28;20153;-60
2023/04/08 09:52:12;;;;;;;3.45;3.15;;;;;;;21.50;31.78;101428.13;4530927;28;20039;-60
2023/04/08 09:54:29;;;;;;;3.15;2.90;;;;;;;21.49;31.82;101423.59;4513070;28;20980;-61
2023/04/08 09:56:53;;;;;;;2.80;2.60;;;;;;;21.50;31.46;101438.81;4531675;28;20033;-60
2023/04/08 09:59:16;;;;;;;2.88;2.67;;;;;;;21.48;31.68;101429.69;4532315;28;20037;-60
2023/04/08 10:01:38;;;;;;;2.70;2.50;;;;;;;21.50;31.78;101431.00;4530092;28;20029;-60
2023/04/08 10:03:53;;;;;;;2.70;2.50;;;;;;;21.50;31.42;101433.88;4530369;28;20029;-60
2023/04/08 10:06:07;;;;;;;3.03;2.83;;;;;;;21.50;31.64;101428.13;4530785;28;20044;-60
2023/04/08 10:08:17;;;;;;;2.83;2.63;;;;;;;21.34;31.83;101397.56;4529650;28;20207;-59
2023/04/08 10:10:28;;;;;;;2.90;2.70;;;;;;;21.47;31.66;101416.53;4532353;28;20037;-60
2023/04/08 10:12:39;;;;;;;2.80;2.50;;;;;;;21.48;32.25;101413.31;4534148;28;20044;-60